Time;durP1;ratioP1;P1;durP2;ratioP2;P2;SDS_P1;SDS_P2;PMS_P1;PMS_P2;Temp;Humidity;BMP_temperature;BMP_pressure;BME280_temperature;BME280_humidity;BME280_pressure;Samples;Min_cycle;Max_cycle;Signal;HPM_P1;HPM_P2
2023/05/06 00:04:02;;;;;;;16.80;12.47;;;;;;;;;;10392599;28;20409;-86
2023/05/06 00:09:04;;;;;;;17.15;13.25;;;;;;;;;;10389061;28;20407;-86
2023/05/06 00:14:06;;;;;;;18.15;12.40;;;;;;;;;;10384249;28;20434;-86
2023/05/06 00:19:09;;;;;;;17.25;12.63;;;;;;;;;;10365819;28;20399;-86
2023/05/06 00:24:11;;;;;;;16.40;13.55;;;;;;;;;;10384159;28;20410;-85
2023/05/06 00:29:13;;;;;;;17.23;13.55;;;;;;;;;;10387431;28;20405;-85
2023/05/06 00:34:16;;;;;;;18.03;13.73;;;;;;;;;;10384750;28;20601;-86
2023/05/06 00:39:18;;;;;;;19.10;12.95;;;;;;;;;;10386151;28;20480;-86
2023/05/06 00:44:19;;;;;;;17.48;14.02;;;;;;;;;;10386472;28;20512;-86
2023/05/06 00:49:23;;;;;;;18.83;14.70;;;;;;;;;;10398292;28;20442;-85
2023/05/06 00:54:26;;;;;;;19.40;15.20;;;;;;;;;;10393863;28;20429;-86
2023/05/06 00:59:28;;;;;;;20.52;15.98;;;;;;;;;;10395924;28;20445;-85
2023/05/06 01:04:32;;;;;;;22.03;16.23;;;;;;;;;;10394256;28;20416;-85
2023/05/06 01:09:42;;;;;;;23.30;16.60;;;;;;;;;;10395001;28;20998;-86
2023/05/06 01:14:53;;;;;;;20.42;16.48;;;;;;;;;;10395929;28;20421;-86
2023/05/06 01:20:00;;;;;;;20.38;15.60;;;;;;;;;;10393207;28;20468;-86
2023/05/06 01:25:03;;;;;;;21.57;16.37;;;;;;;;;;10394926;28;20413;-86
2023/05/06 01:30:06;;;;;;;21.38;15.25;;;;;;;;;;10393254;28;20433;-86
2023/05/06 01:35:18;;;;;;;20.07;15.47;;;;;;;;;;10393799;28;20421;-86
2023/05/06 01:40:26;;;;;;;19.93;15.83;;;;;;;;;;10389549;28;20462;-86
2023/05/06 01:45:30;;;;;;;21.80;16.55;;;;;;;;;;10385858;28;20500;-86
2023/05/06 01:50:33;;;;;;;22.08;16.33;;;;;;;;;;10387411;28;20899;-85
2023/05/06 01:55:36;;;;;;;23.02;17.08;;;;;;;;;;10391287;28;20511;-84
2023/05/06 02:00:40;;;;;;;21.23;16.25;;;;;;;;;;10390080;28;20472;-84
2023/05/06 02:05:42;;;;;;;23.77;16.67;;;;;;;;;;10393340;28;20438;-85
2023/05/06 02:10:45;;;;;;;20.87;16.40;;;;;;;;;;10392987;28;20412;-85
2023/05/06 02:15:52;;;;;;;22.75;17.35;;;;;;;;;;10391121;28;20460;-85
2023/05/06 02:20:53;;;;;;;23.20;16.55;;;;;;;;;;10392155;28;20415;-85
2023/05/06 02:25:58;;;;;;;23.23;16.70;;;;;;;;;;10389994;28;20438;-84
2023/05/06 02:31:00;;;;;;;20.70;16.13;;;;;;;;;;10388743;28;20411;-86
2023/05/06 02:36:02;;;;;;;21.95;16.65;;;;;;;;;;10392119;28;20518;-85
2023/05/06 02:41:05;;;;;;;22.80;16.15;;;;;;;;;;10389683;28;20403;-85
2023/05/06 02:46:07;;;;;;;23.30;16.25;;;;;;;;;;10400015;28;20401;-87
2023/05/06 02:51:08;;;;;;;20.88;15.55;;;;;;;;;;10390517;28;20497;-86
2023/05/06 02:56:12;;;;;;;20.90;15.65;;;;;;;;;;10391526;28;20433;-86
2023/05/06 03:01:13;;;;;;;20.08;15.55;;;;;;;;;;10388639;28;20768;-86
2023/05/06 03:06:15;;;;;;;21.48;15.43;;;;;;;;;;10390557;28;20423;-86
2023/05/06 03:11:19;;;;;;;24.10;16.35;;;;;;;;;;10388940;28;20412;-86
2023/05/06 03:16:20;;;;;;;19.92;15.48;;;;;;;;;;10390363;28;20506;-86
2023/05/06 03:21:22;;;;;;;19.77;15.00;;;;;;;;;;10389460;28;21046;-85
2023/05/06 03:26:25;;;;;;;18.95;14.75;;;;;;;;;;10389665;28;20407;-86
2023/05/06 03:31:27;;;;;;;21.63;14.37;;;;;;;;;;10389447;28;20397;-84
2023/05/06 03:36:30;;;;;;;22.30;16.03;;;;;;;;;;10388147;28;20427;-86
2023/05/06 03:41:33;;;;;;;20.50;15.48;;;;;;;;;;10389489;28;20409;-87
2023/05/06 03:46:37;;;;;;;17.80;14.48;;;;;;;;;;10388160;28;20407;-86
2023/05/06 03:51:39;;;;;;;18.65;14.07;;;;;;;;;;10388272;28;20413;-86
2023/05/06 03:56:42;;;;;;;23.20;15.10;;;;;;;;;;10387753;28;20403;-86
2023/05/06 04:01:44;;;;;;;18.60;14.60;;;;;;;;;;10399851;28;20503;-86
2023/05/06 04:06:46;;;;;;;18.35;14.35;;;;;;;;;;10402663;28;20483;-86
2023/05/06 04:11:49;;;;;;;18.33;14.45;;;;;;;;;;10387277;28;20410;-86
2023/05/06 04:16:51;;;;;;;20.67;15.13;;;;;;;;;;10388399;28;20842;-86
2023/05/06 04:21:52;;;;;;;18.25;14.63;;;;;;;;;;10386814;28;20414;-86
2023/05/06 04:26:56;;;;;;;21.15;14.50;;;;;;;;;;10388089;28;20793;-86
2023/05/06 04:31:57;;;;;;;19.15;14.73;;;;;;;;;;10388559;28;20398;-86
2023/05/06 04:36:59;;;;;;;19.75;15.05;;;;;;;;;;10385649;28;20411;-87
2023/05/06 04:42:03;;;;;;;20.23;15.10;;;;;;;;;;10397659;28;20760;-87
2023/05/06 04:47:04;;;;;;;18.50;14.73;;;;;;;;;;10385761;28;20403;-86
2023/05/06 04:52:06;;;;;;;21.55;15.35;;;;;;;;;;10390994;28;20422;-87
2023/05/06 04:57:10;;;;;;;19.80;14.73;;;;;;;;;;10366464;28;20897;-86
2023/05/06 05:02:11;;;;;;;21.08;15.10;;;;;;;;;;10385419;28;20454;-86
2023/05/06 05:07:14;;;;;;;17.38;14.30;;;;;;;;;;10390486;28;20445;-87
2023/05/06 05:12:17;;;;;;;18.88;14.98;;;;;;;;;;10410874;28;20414;-87
2023/05/06 05:17:19;;;;;;;19.23;14.50;;;;;;;;;;10409016;28;20448;-86
2023/05/06 05:22:20;;;;;;;18.30;14.52;;;;;;;;;;10431152;28;20401;-87
2023/05/06 05:27:24;;;;;;;22.45;15.10;;;;;;;;;;10421460;28;20500;-85
2023/05/06 05:32:26;;;;;;;19.73;14.80;;;;;;;;;;10411276;28;20430;-86
2023/05/06 05:37:27;;;;;;;18.88;15.15;;;;;;;;;;10390278;28;20744;-86
2023/05/06 05:42:32;;;;;;;20.42;15.77;;;;;;;;;;10390852;28;20413;-86
2023/05/06 05:47:34;;;;;;;20.80;15.38;;;;;;;;;;10392840;28;20490;-86
2023/05/06 05:52:36;;;;;;;20.90;15.25;;;;;;;;;;10392209;28;20435;-85
2023/05/06 05:57:39;;;;;;;21.58;15.63;;;;;;;;;;10402956;28;20397;-87
2023/05/06 06:02:41;;;;;;;23.03;16.73;;;;;;;;;;10430982;28;20484;-85
2023/05/06 06:07:42;;;;;;;19.98;15.57;;;;;;;;;;10433527;28;20409;-86
2023/05/06 06:12:45;;;;;;;20.65;16.15;;;;;;;;;;10397481;28;20425;-86
2023/05/06 06:17:47;;;;;;;22.60;16.50;;;;;;;;;;10391353;28;20838;-86
2023/05/06 06:22:49;;;;;;;23.48;16.75;;;;;;;;;;10434992;28;20404;-86
2023/05/06 06:27:52;;;;;;;23.97;17.70;;;;;;;;;;10425849;28;20488;-85
2023/05/06 06:32:57;;;;;;;22.23;16.25;;;;;;;;;;10430898;28;21100;-86
2023/05/06 06:37:59;;;;;;;24.02;17.50;;;;;;;;;;10438979;28;20463;-86
2023/05/06 06:43:02;;;;;;;25.20;17.88;;;;;;;;;;10421940;28;20421;-85
2023/05/06 06:48:04;;;;;;;21.67;16.40;;;;;;;;;;10414974;28;20677;-86
2023/05/06 06:53:06;;;;;;;23.73;17.75;;;;;;;;;;10410269;28;20425;-85
2023/05/06 06:58:09;;;;;;;23.80;17.75;;;;;;;;;;10416278;28;20506;-85
2023/05/06 07:03:14;;;;;;;25.57;18.13;;;;;;;;;;10426459;28;20399;-85
2023/05/06 07:08:16;;;;;;;24.30;18.00;;;;;;;;;;10426540;28;20406;-86
2023/05/06 07:13:22;;;;;;;24.52;18.17;;;;;;;;;;10429526;28;20781;-86
2023/05/06 07:18:23;;;;;;;25.75;18.95;;;;;;;;;;10426617;28;20414;-86
2023/05/06 07:23:25;;;;;;;24.23;17.98;;;;;;;;;;10431740;28;20783;-87
2023/05/06 07:28:28;;;;;;;25.03;18.13;;;;;;;;;;10432033;28;20408;-87
2023/05/06 07:33:30;;;;;;;25.35;18.90;;;;;;;;;;10423724;28;20427;-87
2023/05/06 07:38:32;;;;;;;26.48;18.08;;;;;;;;;;10430651;28;20404;-87
2023/05/06 07:43:35;;;;;;;27.60;18.02;;;;;;;;;;10426193;28;20413;-87
2023/05/06 07:48:37;;;;;;;25.60;19.47;;;;;;;;;;10429618;28;20405;-86
2023/05/06 07:53:39;;;;;;;27.43;19.83;;;;;;;;;;10424851;28;20426;-87
2023/05/06 07:58:42;;;;;;;29.58;20.52;;;;;;;;;;10429259;28;20409;-86
2023/05/06 08:03:44;;;;;;;30.97;20.23;;;;;;;;;;10421534;28;20772;-86
2023/05/06 08:08:46;;;;;;;24.67;19.37;;;;;;;;;;10429046;28;20909;-86
2023/05/06 08:13:50;;;;;;;26.77;19.27;;;;;;;;;;10427224;28;20917;-87
2023/05/06 08:18:51;;;;;;;25.57;18.87;;;;;;;;;;10428149;28;20402;-87
2023/05/06 08:23:54;;;;;;;28.07;18.30;;;;;;;;;;10427340;28;20441;-87
2023/05/06 08:28:58;;;;;;;30.17;20.10;;;;;;;;;;10427152;28;20413;-87
2023/05/06 08:34:00;;;;;;;31.90;20.43;;;;;;;;;;10437424;28;20427;-87
2023/05/06 08:39:01;;;;;;;30.40;20.00;;;;;;;;;;10428600;28;20476;-86
2023/05/06 08:44:05;;;;;;;28.10;19.80;;;;;;;;;;10429275;28;20479;-87
2023/05/06 08:49:07;;;;;;;26.75;19.52;;;;;;;;;;10422848;28;20903;-87
2023/05/06 08:54:10;;;;;;;28.23;19.13;;;;;;;;;;10421433;28;20962;-87
2023/05/06 08:59:14;;;;;;;24.25;18.48;;;;;;;;;;10418531;28;20412;-85
2023/05/06 09:04:17;;;;;;;23.65;16.98;;;;;;;;;;10400559;28;20405;-87
2023/05/06 09:09:19;;;;;;;23.42;17.52;;;;;;;;;;10404491;28;20412;-86
2023/05/06 09:14:23;;;;;;;22.83;15.48;;;;;;;;;;10411975;28;20439;-86
2023/05/06 09:19:25;;;;;;;23.70;18.42;;;;;;;;;;10410078;28;20413;-86
2023/05/06 09:24:28;;;;;;;21.27;15.30;;;;;;;;;;10434588;28;20403;-87
2023/05/06 09:29:32;;;;;;;24.95;16.05;;;;;;;;;;10423007;28;20476;-85
2023/05/06 09:34:35;;;;;;;17.70;13.23;;;;;;;;;;10427043;28;20433;-85
2023/05/06 09:39:37;;;;;;;19.75;14.98;;;;;;;;;;10425186;28;20463;-87
2023/05/06 09:44:41;;;;;;;23.15;16.83;;;;;;;;;;10427526;28;20413;-83
2023/05/06 09:49:43;;;;;;;21.00;15.60;;;;;;;;;;10425187;28;20442;-85
2023/05/06 09:54:46;;;;;;;18.85;13.15;;;;;;;;;;10426726;28;20422;-85
2023/05/06 09:59:51;;;;;;;20.20;14.60;;;;;;;;;;10428226;28;20798;-85
2023/05/06 10:04:56;;;;;;;12.87;10.30;;;;;;;;;;10429392;28;20403;-85
2023/05/06 10:10:00;;;;;;;16.17;12.63;;;;;;;;;;10419180;28;20425;-85
2023/05/06 10:15:04;;;;;;;20.08;16.08;;;;;;;;;;10425526;28;20971;-85
2023/05/06 10:20:11;;;;;;;20.35;15.20;;;;;;;;;;10415874;28;20961;-85
2023/05/06 10:25:18;;;;;;;14.80;12.23;;;;;;;;;;10424124;28;20409;-86
2023/05/06 10:30:22;;;;;;;12.80;10.48;;;;;;;;;;10440489;28;20465;-86
2023/05/06 10:35:32;;;;;;;9.00;7.40;;;;;;;;;;10409722;28;20817;-87
2023/05/06 10:40:34;;;;;;;10.35;7.78;;;;;;;;;;10383473;28;20945;-86
2023/05/06 10:45:59;;;;;;;15.55;11.00;;;;;;;;;;10382257;28;20413;-87
2023/05/06 10:51:23;;;;;;;12.07;10.10;;;;;;;;;;10382588;28;20423;-85
2023/05/06 10:56:25;;;;;;;9.85;7.97;;;;;;;;;;10382325;28;20430;-86
2023/05/06 11:01:29;;;;;;;11.27;9.60;;;;;;;;;;10381358;28;20763;-86
2023/05/06 11:06:38;;;;;;;12.02;9.23;;;;;;;;;;10383069;28;20955;-86
2023/05/06 11:11:48;;;;;;;11.70;9.47;;;;;;;;;;10390888;28;20409;-86
2023/05/06 11:16:52;;;;;;;9.37;7.80;;;;;;;;;;10383911;28;20448;-87
2023/05/06 11:21:56;;;;;;;9.07;8.00;;;;;;;;;;10383558;28;20417;-86
2023/05/06 11:27:00;;;;;;;10.50;8.80;;;;;;;;;;10419707;28;20840;-86
2023/05/06 11:32:05;;;;;;;11.40;8.73;;;;;;;;;;10412842;28;20422;-86
2023/05/06 11:37:08;;;;;;;9.77;8.55;;;;;;;;;;10383722;28;20409;-86
2023/05/06 11:42:10;;;;;;;11.27;9.00;;;;;;;;;;10383233;28;20451;-87
2023/05/06 11:47:13;;;;;;;10.47;8.97;;;;;;;;;;10396992;28;20405;-87
2023/05/06 11:52:18;;;;;;;10.07;7.90;;;;;;;;;;10407637;28;20917;-88
2023/05/06 11:57:20;;;;;;;9.45;8.10;;;;;;;;;;10400887;28;20945;-86
2023/05/06 12:02:24;;;;;;;11.55;9.48;;;;;;;;;;10384290;28;20412;-86
2023/05/06 12:07:26;;;;;;;11.52;10.13;;;;;;;;;;10411076;28;20417;-86
2023/05/06 12:12:27;;;;;;;11.75;9.85;;;;;;;;;;10409945;28;20788;-86
2023/05/06 12:17:30;;;;;;;11.90;10.00;;;;;;;;;;10402175;28;20435;-86
2023/05/06 12:22:32;;;;;;;10.07;8.50;;;;;;;;;;10403276;28;20789;-87
2023/05/06 12:27:36;;;;;;;9.52;8.07;;;;;;;;;;10391765;28;20422;-85
2023/05/06 12:33:00;;;;;;;9.80;8.80;;;;;;;;;;10401202;28;20586;-87
2023/05/06 12:38:08;;;;;;;11.80;8.77;;;;;;;;;;10406818;28;20511;-88
2023/05/06 12:43:11;;;;;;;9.10;8.17;;;;;;;;;;10409416;28;20853;-88
2023/05/06 12:48:16;;;;;;;8.95;7.65;;;;;;;;;;10386901;28;20430;-88
2023/05/06 12:53:31;;;;;;;8.82;7.93;;;;;;;;;;10394866;28;20789;-89
2023/05/06 12:58:36;;;;;;;10.48;9.35;;;;;;;;;;10392601;28;20469;-88
2023/05/06 13:03:39;;;;;;;11.23;9.33;;;;;;;;;;10407868;28;20424;-89
2023/05/06 13:08:41;;;;;;;10.25;8.65;;;;;;;;;;10403186;28;21878;-87
2023/05/06 13:13:43;;;;;;;10.97;8.83;;;;;;;;;;10407225;28;20407;-80
2023/05/06 13:18:46;;;;;;;12.00;10.10;;;;;;;;;;10398971;28;20409;-86
2023/05/06 13:23:48;;;;;;;12.98;11.50;;;;;;;;;;10413006;28;20398;-87
2023/05/06 13:28:50;;;;;;;11.33;9.20;;;;;;;;;;10395098;28;20408;-87
2023/05/06 13:33:53;;;;;;;11.20;8.98;;;;;;;;;;10400060;28;20781;-87
2023/05/06 13:38:55;;;;;;;12.55;10.45;;;;;;;;;;10416078;28;20470;-87
2023/05/06 13:43:56;;;;;;;10.55;9.35;;;;;;;;;;10410330;28;20432;-87
2023/05/06 13:48:59;;;;;;;13.98;9.68;;;;;;;;;;10412295;28;20406;-88
2023/05/06 13:54:02;;;;;;;12.00;10.45;;;;;;;;;;10412432;28;20421;-88
2023/05/06 13:59:03;;;;;;;9.10;7.82;;;;;;;;;;10396675;28;20417;-87
2023/05/06 14:04:06;;;;;;;10.80;8.57;;;;;;;;;;10396977;28;20405;-87
2023/05/06 14:09:08;;;;;;;10.23;8.13;;;;;;;;;;10361455;28;20422;-87
2023/05/06 14:14:10;;;;;;;8.98;7.97;;;;;;;;;;10375661;28;20501;-87
2023/05/06 14:19:13;;;;;;;9.20;7.27;;;;;;;;;;10361748;28;20437;-87
2023/05/06 14:24:15;;;;;;;9.33;6.97;;;;;;;;;;10350064;28;20499;-89
2023/05/06 14:29:16;;;;;;;8.48;7.45;;;;;;;;;;10352949;28;20405;-87
2023/05/06 14:34:20;;;;;;;7.77;6.37;;;;;;;;;;10354264;28;20422;-88
2023/05/06 14:39:21;;;;;;;8.10;7.30;;;;;;;;;;10349582;28;20499;-88
2023/05/06 14:44:23;;;;;;;8.43;6.82;;;;;;;;;;10353254;28;20415;-88
2023/05/06 14:49:26;;;;;;;8.43;7.22;;;;;;;;;;10352075;28;20516;-88
2023/05/06 14:54:29;;;;;;;8.02;7.32;;;;;;;;;;10348371;28;20482;-87
2023/05/06 14:59:30;;;;;;;7.82;7.13;;;;;;;;;;10330767;28;20447;-88
2023/05/06 15:04:34;;;;;;;8.00;7.20;;;;;;;;;;10337152;28;20963;-88
2023/05/06 15:09:38;;;;;;;12.35;8.82;;;;;;;;;;10389403;28;20443;-87
2023/05/06 15:14:40;;;;;;;10.23;8.10;;;;;;;;;;10388365;28;20423;-87
2023/05/06 15:19:43;;;;;;;8.15;7.03;;;;;;;;;;10394354;28;20416;-87
2023/05/06 15:24:45;;;;;;;8.32;7.47;;;;;;;;;;10420625;28;20416;-88
2023/05/06 15:29:47;;;;;;;8.20;6.97;;;;;;;;;;10402318;28;20401;-88
2023/05/06 15:34:50;;;;;;;8.85;7.72;;;;;;;;;;10396583;28;20802;-87
2023/05/06 15:39:51;;;;;;;9.10;8.20;;;;;;;;;;10393300;28;20415;-87
2023/05/06 15:44:53;;;;;;;9.75;7.93;;;;;;;;;;10394662;28;20408;-87
2023/05/06 15:49:57;;;;;;;10.70;7.73;;;;;;;;;;10393615;28;20401;-88
2023/05/06 15:55:00;;;;;;;8.63;7.07;;;;;;;;;;10403667;28;20433;-87
2023/05/06 16:00:03;;;;;;;7.05;6.38;;;;;;;;;;10410790;28;20439;-85
2023/05/06 16:05:08;;;;;;;7.00;6.25;;;;;;;;;;10419121;28;20418;-85
2023/05/06 16:10:10;;;;;;;8.50;6.72;;;;;;;;;;10395289;28;20433;-87
2023/05/06 16:15:12;;;;;;;6.88;5.40;;;;;;;;;;10425160;28;20519;-86
2023/05/06 16:20:15;;;;;;;6.03;5.43;;;;;;;;;;10418666;28;20919;-88
2023/05/06 16:25:17;;;;;;;8.70;6.30;;;;;;;;;;10398976;28;20768;-87
2023/05/06 16:30:18;;;;;;;7.10;6.40;;;;;;;;;;10405913;28;20419;-88
2023/05/06 16:35:22;;;;;;;7.07;6.17;;;;;;;;;;10422300;28;20799;-88
2023/05/06 16:40:24;;;;;;;5.63;5.10;;;;;;;;;;10413594;28;20430;-87
2023/05/06 16:45:26;;;;;;;5.50;5.00;;;;;;;;;;10414022;28;20421;-86
2023/05/06 16:50:30;;;;;;;8.98;5.50;;;;;;;;;;10405573;28;20414;-87
2023/05/06 16:55:32;;;;;;;6.07;4.70;;;;;;;;;;10396464;28;20434;-87
2023/05/06 17:00:34;;;;;;;7.17;4.80;;;;;;;;;;10392687;28;20416;-88
2023/05/06 17:05:37;;;;;;;5.18;4.68;;;;;;;;;;10386852;28;20404;-89
2023/05/06 17:10:39;;;;;;;5.25;4.75;;;;;;;;;;10384137;28;20422;-88
2023/05/06 17:15:40;;;;;;;5.72;4.85;;;;;;;;;;10386314;28;20508;-89
2023/05/06 17:20:43;;;;;;;7.37;4.70;;;;;;;;;;10387062;28;20982;-87
2023/05/06 17:25:45;;;;;;;4.67;4.27;;;;;;;;;;10388116;28;20405;-89
2023/05/06 17:30:47;;;;;;;7.07;5.05;;;;;;;;;;10387047;28;21108;-88
2023/05/06 17:35:50;;;;;;;8.90;8.00;;;;;;;;;;10396101;28;20470;-88
2023/05/06 17:40:52;;;;;;;5.28;4.78;;;;;;;;;;10396260;28;20407;-88
2023/05/06 17:45:54;;;;;;;5.20;4.07;;;;;;;;;;10395696;28;20896;-88
2023/05/06 17:51:01;;;;;;;5.47;4.43;;;;;;;;;;10395909;28;20422;-88
2023/05/06 17:56:03;;;;;;;7.72;4.85;;;;;;;;;;10373435;28;20997;-89
2023/05/06 18:01:06;;;;;;;5.82;4.68;;;;;;;;;;10373381;28;20415;-88
2023/05/06 18:06:09;;;;;;;7.27;4.53;;;;;;;;;;10405651;28;20422;-88
2023/05/06 18:11:11;;;;;;;6.70;4.13;;;;;;;;;;10395001;28;20403;-88
2023/05/06 18:16:12;;;;;;;5.77;4.33;;;;;;;;;;10394318;28;20433;-88
2023/05/06 18:21:15;;;;;;;6.00;4.57;;;;;;;;;;10397426;28;20411;-88
2023/05/06 18:26:17;;;;;;;4.25;3.85;;;;;;;;;;10372336;28;20431;-87
2023/05/06 18:31:20;;;;;;;5.40;4.37;;;;;;;;;;10392097;28;20965;-87
2023/05/06 18:36:23;;;;;;;5.03;3.60;;;;;;;;;;10398266;28;20772;-87
2023/05/06 18:41:25;;;;;;;5.43;3.92;;;;;;;;;;10393353;28;20488;-88
2023/05/06 18:46:27;;;;;;;4.22;3.63;;;;;;;;;;10390616;28;20399;-88
2023/05/06 18:51:30;;;;;;;5.55;4.20;;;;;;;;;;10399124;28;20919;-88
2023/05/06 18:56:32;;;;;;;6.17;4.37;;;;;;;;;;10389771;28;20427;-87
2023/05/06 19:01:34;;;;;;;6.65;4.72;;;;;;;;;;10392313;28;20517;-88
2023/05/06 19:06:37;;;;;;;5.53;4.93;;;;;;;;;;10392810;28;20417;-88
2023/05/06 19:11:39;;;;;;;5.38;4.57;;;;;;;;;;10392051;28;20411;-88
2023/05/06 19:16:41;;;;;;;7.47;5.20;;;;;;;;;;10390246;28;20425;-88
2023/05/06 19:21:44;;;;;;;7.03;5.30;;;;;;;;;;10395601;28;20464;-88
2023/05/06 19:26:46;;;;;;;7.20;6.15;;;;;;;;;;10391375;28;20411;-86
2023/05/06 19:31:48;;;;;;;7.43;6.57;;;;;;;;;;10389340;28;20765;-87
2023/05/06 19:36:51;;;;;;;7.03;5.47;;;;;;;;;;10395314;28;20425;-88
2023/05/06 19:41:53;;;;;;;8.65;5.57;;;;;;;;;;10390574;28;20419;-87
2023/05/06 19:46:55;;;;;;;7.43;5.77;;;;;;;;;;10387846;28;20409;-87
2023/05/06 19:51:59;;;;;;;6.23;5.60;;;;;;;;;;10395276;28;20800;-87
2023/05/06 19:57:01;;;;;;;8.10;6.75;;;;;;;;;;10387971;28;20928;-86
2023/05/06 20:02:02;;;;;;;9.00;5.65;;;;;;;;;;10392144;28;20479;-87
2023/05/06 20:07:06;;;;;;;7.22;6.10;;;;;;;;;;10393417;28;20779;-88
2023/05/06 20:12:07;;;;;;;7.95;6.00;;;;;;;;;;10391145;28;20466;-87
2023/05/06 20:17:09;;;;;;;8.13;6.25;;;;;;;;;;10393727;28;20425;-87
2023/05/06 20:22:12;;;;;;;8.18;5.80;;;;;;;;;;10401135;28;20494;-87
2023/05/06 20:27:15;;;;;;;7.07;5.73;;;;;;;;;;10389107;28;20432;-86
2023/05/06 20:32:16;;;;;;;7.38;5.82;;;;;;;;;;10387645;28;20510;-86
2023/05/06 20:37:20;;;;;;;8.13;6.00;;;;;;;;;;10396481;28;20440;-88
2023/05/06 20:42:22;;;;;;;7.20;6.30;;;;;;;;;;10386965;28;20846;-88
2023/05/06 20:47:23;;;;;;;6.65;6.00;;;;;;;;;;10389653;28;20489;-87
2023/05/06 20:52:26;;;;;;;8.20;6.30;;;;;;;;;;10392784;28;20435;-88
2023/05/06 20:57:28;;;;;;;7.63;6.10;;;;;;;;;;10366576;28;20926;-87
2023/05/06 21:02:30;;;;;;;7.83;6.37;;;;;;;;;;10368258;28;20947;-88
2023/05/06 21:07:33;;;;;;;7.83;6.30;;;;;;;;;;10396467;28;20923;-87
2023/05/06 21:12:35;;;;;;;7.93;6.63;;;;;;;;;;10392953;28;20406;-87
2023/05/06 21:17:37;;;;;;;11.40;7.50;;;;;;;;;;10397538;28;20886;-86
2023/05/06 21:22:40;;;;;;;9.57;7.88;;;;;;;;;;10398102;28;20856;-87
2023/05/06 21:27:42;;;;;;;9.67;8.63;;;;;;;;;;10394074;28;20409;-87
2023/05/06 21:32:44;;;;;;;13.00;9.05;;;;;;;;;;10397662;28;20450;-87
2023/05/06 21:37:47;;;;;;;11.93;9.70;;;;;;;;;;10396726;28;20420;-87
2023/05/06 21:42:49;;;;;;;14.73;11.87;;;;;;;;;;10395393;28;20507;-87
2023/05/06 21:47:51;;;;;;;14.07;12.38;;;;;;;;;;10395166;28;20777;-87
2023/05/06 21:52:54;;;;;;;14.75;11.50;;;;;;;;;;10396875;28;20409;-87
2023/05/06 21:57:56;;;;;;;15.05;12.20;;;;;;;;;;10398819;28;20425;-88
2023/05/06 22:02:58;;;;;;;16.65;14.02;;;;;;;;;;10393748;28;20765;-87
2023/05/06 22:08:01;;;;;;;17.43;14.73;;;;;;;;;;10396913;28;20422;-87
2023/05/06 22:13:03;;;;;;;17.75;14.07;;;;;;;;;;10393393;28;20443;-87
2023/05/06 22:18:07;;;;;;;18.63;14.30;;;;;;;;;;10393200;28;20433;-87
2023/05/06 22:23:11;;;;;;;16.65;13.82;;;;;;;;;;10394647;28;20850;-87
2023/05/06 22:28:12;;;;;;;15.60;13.60;;;;;;;;;;10392266;28;20413;-87
2023/05/06 22:33:14;;;;;;;16.05;14.00;;;;;;;;;;10391654;28;20421;-87
2023/05/06 22:38:17;;;;;;;15.90;14.07;;;;;;;;;;10400027;28;20429;-88
2023/05/06 22:43:19;;;;;;;19.23;13.80;;;;;;;;;;10392267;28;20494;-87
2023/05/06 22:48:21;;;;;;;15.32;13.35;;;;;;;;;;10394388;28;20413;-87
2023/05/06 22:53:24;;;;;;;14.83;13.23;;;;;;;;;;10398755;28;20423;-86
2023/05/06 22:58:26;;;;;;;16.73;12.98;;;;;;;;;;10387013;28;20560;-87
2023/05/06 23:03:28;;;;;;;16.27;13.00;;;;;;;;;;10388080;28;20407;-90
2023/05/06 23:08:31;;;;;;;15.20;12.57;;;;;;;;;;10466524;22;20421;-86
2023/05/06 23:13:34;;;;;;;15.25;13.00;;;;;;;;;;10462703;28;20412;-87
2023/05/06 23:18:36;;;;;;;14.85;12.85;;;;;;;;;;10447557;28;21096;-86
2023/05/06 23:23:39;;;;;;;16.33;13.02;;;;;;;;;;10463693;28;20415;-86
2023/05/06 23:28:41;;;;;;;13.90;12.30;;;;;;;;;;10464945;28;20426;-86
2023/05/06 23:33:43;;;;;;;14.77;12.77;;;;;;;;;;10465564;28;20414;-85
2023/05/06 23:38:46;;;;;;;14.37;12.43;;;;;;;;;;10467114;28;20529;-86
2023/05/06 23:43:48;;;;;;;14.93;12.90;;;;;;;;;;10464488;28;20755;-87
2023/05/06 23:48:49;;;;;;;14.02;12.43;;;;;;;;;;10445460;28;21179;-86
2023/05/06 23:53:53;;;;;;;15.15;12.40;;;;;;;;;;10440375;28;20499;-87
2023/05/06 23:58:54;;;;;;;15.60;12.43;;;;;;;;;;10440887;28;20438;-87
